createdAt,value
2017-12-01T00:00:16.746Z,96.64
2017-12-01T00:01:16.725Z,96.55
2017-12-01T00:02:16.697Z,96.17
2017-12-01T00:03:16.676Z,96.45
2017-12-01T00:04:16.661Z,96.26
2017-12-01T00:05:16.625Z,96.73
2017-12-01T00:06:16.618Z,96.17
2017-12-01T00:07:16.620Z,96.55
2017-12-01T00:08:16.556Z,96.36
2017-12-01T00:09:16.535Z,96.73
2017-12-01T00:10:16.522Z,96.55
2017-12-01T00:11:16.492Z,97.11
2017-12-01T00:12:16.462Z,97.49
2017-12-01T00:13:16.439Z,97.59
2017-12-01T00:14:16.417Z,97.40
2017-12-01T00:15:16.396Z,97.49
2017-12-01T00:16:16.379Z,97.02
2017-12-01T00:17:16.411Z,96.55
2017-12-01T00:18:16.322Z,96.12
2017-12-01T00:19:16.302Z,96.41
2017-12-01T00:20:16.276Z,95.55
2017-12-01T00:21:16.309Z,95.60
2017-12-01T00:22:16.231Z,95.74
2017-12-01T00:23:16.212Z,95.74
2017-12-01T00:24:16.188Z,95.45
2017-12-01T00:25:16.174Z,95.07
2017-12-01T00:26:16.136Z,94.98
2017-12-01T00:27:16.128Z,94.51
2017-12-01T00:28:16.088Z,94.79
2017-12-01T00:29:16.067Z,94.32
2017-12-01T00:30:16.058Z,94.51
2017-12-01T00:31:16.097Z,94.51
2017-12-01T00:32:16.000Z,94.79
2017-12-01T00:33:15.979Z,94.79
2017-12-01T00:34:15.971Z,94.23
2017-12-01T00:35:15.929Z,94.32
2017-12-01T00:36:15.919Z,94.70
2017-12-01T00:37:16.037Z,93.84
2017-12-01T00:38:15.859Z,94.13
2017-12-01T00:39:15.840Z,94.60
2017-12-01T00:40:15.812Z,93.46
2017-12-01T00:41:15.789Z,93.94
2017-12-01T00:42:15.768Z,93.84
2017-12-01T00:43:15.741Z,94.04
2017-12-01T00:44:15.717Z,94.04
2017-12-01T00:45:15.697Z,93.84
2017-12-01T00:46:15.680Z,93.46
2017-12-01T00:47:15.652Z,93.65
2017-12-01T00:48:15.638Z,93.46
2017-12-01T00:49:15.616Z,94.42
2017-12-01T00:50:15.600Z,94.13
2017-12-01T00:51:15.564Z,94.13
2017-12-01T00:52:15.551Z,94.89
2017-12-01T00:53:15.521Z,95.55
2017-12-01T00:54:15.493Z,95.41
2017-12-01T00:55:15.467Z,94.89
2017-12-01T00:56:15.442Z,95.17
2017-12-01T00:57:15.422Z,95.26
2017-12-01T00:58:15.397Z,95.36
2017-12-01T00:59:15.375Z,95.69
2017-12-01T01:00:15.352Z,95.36
2017-12-01T01:01:15.339Z,94.84
2017-12-01T01:02:15.307Z,95.60
2017-12-01T01:03:15.279Z,96.07
2017-12-01T01:04:15.256Z,96.17
2017-12-01T01:05:15.234Z,96.92
2017-12-01T01:06:15.377Z,97.49
2017-12-01T01:07:15.188Z,96.92
2017-12-01T01:08:15.164Z,97.30
2017-12-01T01:09:15.142Z,97.68
2017-12-01T01:10:15.117Z,97.68
2017-12-01T01:11:15.094Z,97.49
2017-12-01T01:12:15.080Z,97.40
2017-12-01T01:13:15.045Z,97.21
2017-12-01T01:14:15.039Z,96.36
2017-12-01T01:15:14.998Z,96.45
2017-12-01T01:16:14.983Z,96.64
2017-12-01T01:17:14.952Z,96.45
2017-12-01T01:18:14.930Z,96.55
2017-12-01T01:19:14.906Z,95.88
2017-12-01T01:20:14.883Z,96.07
2017-12-01T01:21:14.863Z,96.07
2017-12-01T01:22:14.836Z,96.64
2017-12-01T01:23:14.822Z,96.07
2017-12-01T01:24:14.792Z,95.69
2017-12-01T01:25:14.766Z,95.45
2017-12-01T01:26:14.749Z,95.07
2017-12-01T01:27:14.723Z,95.22
2017-12-01T01:28:14.700Z,95.41
2017-12-01T01:29:14.671Z,95.55
2017-12-01T01:30:14.650Z,94.84
2017-12-01T01:31:14.625Z,95.17
2017-12-01T01:32:14.604Z,94.32
2017-12-01T01:33:14.580Z,95.17
2017-12-01T01:34:14.555Z,94.70
2017-12-01T01:35:14.532Z,95.07
2017-12-01T01:36:14.556Z,94.70
2017-12-01T01:37:14.487Z,94.32
2017-12-01T01:38:14.514Z,94.89
2017-12-01T01:39:14.440Z,94.79
2017-12-01T01:40:14.419Z,94.70
2017-12-01T01:41:14.395Z,94.98
2017-12-01T01:42:14.410Z,94.89
2017-12-01T01:43:14.349Z,94.84
2017-12-01T01:44:14.325Z,94.70
2017-12-01T01:45:14.301Z,95.07
2017-12-01T01:46:14.369Z,94.98
2017-12-01T01:47:14.253Z,94.89
2017-12-01T01:48:14.344Z,94.89
2017-12-01T01:49:14.216Z,94.32
2017-12-01T01:50:14.215Z,94.51
2017-12-01T01:51:14.163Z,94.51
2017-12-01T01:52:14.242Z,94.98
2017-12-01T01:53:14.121Z,95.17
2017-12-01T01:54:14.099Z,94.70
2017-12-01T01:55:14.066Z,94.70
2017-12-01T01:56:14.056Z,95.07
2017-12-01T01:57:14.021Z,94.89
2017-12-01T01:58:13.999Z,95.12
2017-12-01T01:59:13.977Z,94.74
2017-12-01T02:00:13.952Z,94.89
2017-12-01T02:01:13.929Z,94.89
2017-12-01T02:02:13.911Z,94.98
2017-12-01T02:03:13.881Z,94.70
2017-12-01T02:04:13.858Z,95.17
2017-12-01T02:05:13.836Z,94.79
2017-12-01T02:06:13.816Z,94.60
2017-12-01T02:07:13.804Z,94.51
2017-12-01T02:08:13.765Z,94.42
2017-12-01T02:09:13.744Z,94.51
2017-12-01T02:10:13.720Z,93.65
2017-12-01T02:11:13.694Z,93.94
2017-12-01T02:12:13.680Z,94.42
2017-12-01T02:13:13.654Z,94.46
2017-12-01T02:14:13.627Z,94.89
2017-12-01T02:15:13.604Z,94.98
2017-12-01T02:16:13.585Z,94.84
2017-12-01T02:17:13.558Z,95.31
2017-12-01T02:18:13.534Z,95.65
2017-12-01T02:19:13.521Z,95.60
2017-12-01T02:20:13.488Z,95.07
2017-12-01T02:21:13.463Z,94.84
2017-12-01T02:22:13.453Z,94.98
2017-12-01T02:23:13.418Z,94.98
2017-12-01T02:24:13.392Z,94.93
2017-12-01T02:25:13.372Z,94.84
2017-12-01T02:26:13.359Z,95.31
2017-12-01T02:27:13.325Z,95.50
2017-12-01T02:28:13.301Z,95.60
2017-12-01T02:29:13.279Z,95.69
2017-12-01T02:30:13.256Z,95.69
2017-12-01T02:31:13.232Z,96.73
2017-12-01T02:32:13.215Z,95.79
2017-12-01T02:33:13.184Z,95.98
2017-12-01T02:34:13.163Z,95.79
2017-12-01T02:35:13.158Z,95.88
2017-12-01T02:36:13.119Z,95.88
2017-12-01T02:37:13.094Z,95.79
2017-12-01T02:38:13.073Z,95.98
2017-12-01T02:39:13.046Z,95.65
2017-12-01T02:40:13.023Z,95.69
2017-12-01T02:41:13.001Z,95.60
2017-12-01T02:42:12.976Z,95.69
2017-12-01T02:43:13.004Z,95.60
2017-12-01T02:44:12.937Z,95.60
2017-12-01T02:45:12.911Z,95.88
2017-12-01T02:46:12.883Z,95.98
2017-12-01T02:47:12.918Z,96.26
2017-12-01T02:48:12.835Z,96.17
2017-12-01T02:49:12.812Z,96.55
2017-12-01T02:50:12.790Z,96.83
2017-12-01T02:51:12.765Z,96.55
2017-12-01T02:52:12.740Z,96.07
2017-12-01T02:53:12.760Z,96.26
2017-12-01T02:54:12.699Z,96.64
2017-12-01T02:55:12.673Z,96.17
2017-12-01T02:56:12.658Z,95.98
2017-12-01T02:57:12.632Z,96.45
2017-12-01T02:58:12.608Z,96.55
2017-12-01T02:59:12.577Z,96.36
2017-12-01T03:00:12.558Z,95.88
2017-12-01T03:01:12.533Z,95.79
2017-12-01T03:02:12.527Z,95.74
2017-12-01T03:03:12.599Z,95.88
2017-12-01T03:04:12.461Z,96.36
2017-12-01T03:05:12.445Z,96.36
2017-12-01T03:06:12.416Z,96.45
2017-12-01T03:07:12.396Z,97.21
2017-12-01T03:08:12.366Z,96.64
2017-12-01T03:09:12.345Z,96.92
2017-12-01T03:10:12.321Z,97.11
2017-12-01T03:11:12.295Z,97.59
2017-12-01T03:12:12.279Z,97.49
2017-12-01T03:13:12.250Z,97.21
2017-12-01T03:14:12.227Z,97.87
2017-12-01T03:15:12.204Z,97.21
2017-12-01T03:16:12.184Z,97.68
2017-12-01T03:17:12.157Z,98.06
2017-12-01T03:18:12.140Z,97.40
2017-12-01T03:19:12.109Z,97.30
2017-12-01T03:20:12.085Z,97.21
2017-12-01T03:21:12.064Z,97.30
2017-12-01T03:22:12.041Z,97.49
2017-12-01T03:23:12.017Z,97.21
2017-12-01T03:24:11.994Z,96.83
2017-12-01T03:25:11.971Z,96.83
2017-12-01T03:26:11.946Z,96.73
2017-12-01T03:27:11.937Z,96.45
2017-12-01T03:28:11.899Z,96.36
2017-12-01T03:29:11.879Z,96.26
2017-12-01T03:30:11.863Z,96.64
2017-12-01T03:31:11.828Z,97.30
2017-12-01T03:32:11.804Z,97.02
2017-12-01T03:33:11.783Z,97.11
2017-12-01T03:34:11.771Z,97.30
2017-12-01T03:35:11.735Z,97.11
2017-12-01T03:36:11.720Z,97.78
2017-12-01T03:37:11.691Z,97.11
2017-12-01T03:38:11.665Z,97.59
2017-12-01T03:39:11.641Z,97.30
2017-12-01T03:40:11.624Z,97.30
2017-12-01T03:41:11.594Z,97.02
2017-12-01T03:42:11.571Z,97.02
2017-12-01T03:43:11.553Z,96.83
2017-12-01T03:44:11.524Z,97.02
2017-12-01T03:45:11.501Z,97.02
2017-12-01T03:46:11.479Z,97.30
2017-12-01T03:47:11.452Z,97.68
2017-12-01T03:48:11.432Z,97.30
2017-12-01T03:49:11.409Z,97.30
2017-12-01T03:50:11.387Z,98.35
2017-12-01T03:51:11.360Z,97.78
2017-12-01T03:52:11.342Z,97.87
2017-12-01T03:53:11.312Z,97.21
2017-12-01T03:54:11.289Z,97.49
2017-12-01T03:55:11.269Z,97.30
2017-12-01T03:56:11.242Z,97.59
2017-12-01T03:57:11.220Z,97.40
2017-12-01T03:58:11.280Z,97.11
2017-12-01T03:59:11.173Z,97.59
2017-12-01T04:00:11.148Z,98.35
2017-12-01T04:01:11.127Z,97.30
2017-12-01T04:02:11.186Z,97.68
2017-12-01T04:03:11.080Z,97.30
2017-12-01T04:04:11.109Z,97.30
2017-12-01T04:05:11.033Z,97.30
2017-12-01T04:06:11.008Z,97.78
2017-12-01T04:07:10.987Z,97.02
2017-12-01T04:08:11.073Z,97.11
2017-12-01T04:09:10.938Z,97.68
2017-12-01T04:10:10.917Z,97.30
2017-12-01T04:11:10.894Z,97.30
2017-12-01T04:12:10.868Z,97.59
2017-12-01T04:13:10.847Z,97.68
2017-12-01T04:14:10.910Z,97.49
2017-12-01T04:15:10.796Z,97.59
2017-12-01T04:16:10.783Z,97.11
2017-12-01T04:17:10.751Z,97.30
2017-12-01T04:18:10.834Z,97.30
2017-12-01T04:19:10.705Z,97.59
2017-12-01T04:20:10.681Z,97.49
2017-12-01T04:21:10.656Z,97.40
2017-12-01T04:22:10.637Z,97.11
2017-12-01T04:23:10.626Z,97.11
2017-12-01T04:24:10.597Z,97.59
2017-12-01T04:25:10.566Z,97.40
2017-12-01T04:26:10.540Z,97.30
2017-12-01T04:27:10.514Z,97.49
2017-12-01T04:28:10.492Z,97.30
2017-12-01T04:29:10.469Z,97.68
2017-12-01T04:30:10.450Z,97.21
2017-12-01T04:31:10.420Z,97.49
2017-12-01T04:32:10.396Z,97.30
2017-12-01T04:33:10.374Z,97.30
2017-12-01T04:34:10.356Z,96.92
2017-12-01T04:35:10.326Z,96.92
2017-12-01T04:36:10.304Z,97.02
2017-12-01T04:37:10.283Z,96.83
2017-12-01T04:38:10.257Z,96.92
2017-12-01T04:39:10.231Z,96.97
2017-12-01T04:40:10.214Z,96.92
2017-12-01T04:41:10.185Z,96.92
2017-12-01T04:42:10.167Z,97.40
2017-12-01T04:43:10.141Z,96.83
2017-12-01T04:44:10.115Z,96.83
2017-12-01T04:45:10.092Z,96.83
2017-12-01T04:46:10.072Z,96.59
2017-12-01T04:47:10.046Z,96.41
2017-12-01T04:48:10.023Z,96.12
2017-12-01T04:49:10.020Z,96.26
2017-12-01T04:50:09.973Z,96.03
2017-12-01T04:51:09.951Z,96.31
2017-12-01T04:52:09.937Z,96.12
2017-12-01T04:53:09.912Z,96.50
2017-12-01T04:54:09.880Z,96.26
2017-12-01T04:55:09.857Z,96.55
2017-12-01T04:56:09.832Z,96.36
2017-12-01T04:57:09.810Z,97.11
2017-12-01T04:58:09.790Z,97.30
2017-12-01T04:59:09.766Z,97.02
2017-12-01T05:00:09.740Z,97.11
2017-12-01T05:01:09.720Z,97.11
2017-12-01T05:02:09.695Z,97.30
2017-12-01T05:03:09.673Z,97.68
2017-12-01T05:04:09.649Z,97.11
2017-12-01T05:05:09.627Z,96.69
2017-12-01T05:06:09.601Z,97.02
2017-12-01T05:07:09.581Z,96.83
2017-12-01T05:08:09.555Z,96.92
2017-12-01T05:09:09.532Z,96.92
2017-12-01T05:10:09.516Z,97.02
2017-12-01T05:11:09.483Z,96.88
2017-12-01T05:12:09.461Z,97.59
2017-12-01T05:13:09.477Z,97.49
2017-12-01T05:14:09.415Z,96.92
2017-12-01T05:15:09.388Z,97.11
2017-12-01T05:16:09.366Z,96.92
2017-12-01T05:17:09.342Z,96.92
2017-12-01T05:18:09.325Z,96.97
2017-12-01T05:19:09.353Z,97.68
2017-12-01T05:20:09.271Z,97.11
2017-12-01T05:21:09.252Z,97.59
2017-12-01T05:22:09.232Z,97.59
2017-12-01T05:23:09.280Z,98.25
2017-12-01T05:24:09.176Z,97.97
2017-12-01T05:25:09.160Z,97.68
2017-12-01T05:26:09.138Z,97.40
2017-12-01T05:27:09.108Z,97.83
2017-12-01T05:28:09.086Z,97.30
2017-12-01T05:29:09.077Z,96.92
2017-12-01T05:30:09.045Z,96.88
2017-12-01T05:31:09.015Z,96.22
2017-12-01T05:32:08.991Z,96.50
2017-12-01T05:33:08.984Z,96.22
2017-12-01T05:34:08.943Z,95.93
2017-12-01T05:35:08.919Z,96.07
2017-12-01T05:36:08.913Z,95.93
2017-12-01T05:37:08.874Z,96.17
2017-12-01T05:38:08.848Z,96.36
2017-12-01T05:39:08.824Z,96.12
2017-12-01T05:40:08.804Z,96.59
2017-12-01T05:41:08.778Z,95.93
2017-12-01T05:42:08.764Z,95.84
2017-12-01T05:43:08.733Z,95.60
2017-12-01T05:44:08.708Z,96.45
2017-12-01T05:45:08.693Z,96.26
2017-12-01T05:46:08.663Z,96.55
2017-12-01T05:47:08.637Z,96.55
2017-12-01T05:48:08.614Z,96.17
2017-12-01T05:49:08.592Z,96.17
2017-12-01T05:50:08.567Z,96.64
2017-12-01T05:51:08.544Z,96.55
2017-12-01T05:52:08.521Z,96.73
2017-12-01T05:53:08.497Z,96.59
2017-12-01T05:54:08.475Z,96.07
2017-12-01T05:55:08.453Z,96.73
2017-12-01T05:56:08.436Z,96.36
2017-12-01T05:57:08.404Z,96.64
2017-12-01T05:58:08.380Z,96.36
2017-12-01T05:59:08.365Z,96.55
2017-12-01T06:00:08.336Z,96.07
2017-12-01T06:01:08.314Z,96.64
2017-12-01T06:02:08.287Z,96.64
2017-12-01T06:03:08.261Z,96.07
2017-12-01T06:04:08.239Z,96.36
2017-12-01T06:05:08.221Z,96.26
2017-12-01T06:06:08.193Z,96.07
2017-12-01T06:07:08.168Z,95.98
2017-12-01T06:08:08.143Z,96.55
2017-12-01T06:09:08.120Z,96.36
2017-12-01T06:10:08.103Z,96.59
2017-12-01T06:11:08.080Z,95.98
2017-12-01T06:12:08.058Z,96.17
2017-12-01T06:13:08.024Z,96.55
2017-12-01T06:14:08.013Z,96.59
2017-12-01T06:15:07.979Z,96.26
2017-12-01T06:16:07.954Z,96.55
2017-12-01T06:17:07.938Z,96.31
2017-12-01T06:18:07.910Z,96.45
2017-12-01T06:19:07.882Z,96.69
2017-12-01T06:20:07.869Z,96.45
2017-12-01T06:21:07.839Z,96.92
2017-12-01T06:22:07.814Z,96.45
2017-12-01T06:23:07.792Z,96.07
2017-12-01T06:24:07.769Z,96.26
2017-12-01T06:25:07.746Z,96.17
2017-12-01T06:26:07.719Z,96.45
2017-12-01T06:27:07.698Z,96.45
2017-12-01T06:28:07.672Z,96.26
2017-12-01T06:29:07.646Z,96.26
2017-12-01T06:30:07.651Z,96.17
2017-12-01T06:31:07.599Z,96.64
2017-12-01T06:32:07.576Z,96.64
2017-12-01T06:33:07.557Z,96.55
2017-12-01T06:34:07.551Z,96.55
2017-12-01T06:35:07.506Z,96.17
2017-12-01T06:36:07.480Z,96.17
2017-12-01T06:37:07.466Z,96.07
2017-12-01T06:38:07.435Z,96.64
2017-12-01T06:39:07.410Z,96.45
2017-12-01T06:40:07.404Z,96.07
2017-12-01T06:41:07.365Z,96.26
2017-12-01T06:42:07.339Z,96.64
2017-12-01T06:43:07.315Z,96.26
2017-12-01T06:44:07.373Z,96.64
2017-12-01T06:45:07.270Z,96.55
2017-12-01T06:46:07.245Z,96.45
2017-12-01T06:47:07.223Z,96.64
2017-12-01T06:48:07.197Z,96.17
2017-12-01T06:49:07.173Z,96.73
2017-12-01T06:50:07.154Z,96.73
2017-12-01T06:51:07.125Z,96.73
2017-12-01T06:52:07.103Z,97.02
2017-12-01T06:53:07.085Z,97.02
2017-12-01T06:54:07.063Z,96.83
2017-12-01T06:55:07.033Z,96.36
2017-12-01T06:56:07.009Z,96.83
2017-12-01T06:57:06.986Z,96.36
2017-12-01T06:58:06.964Z,96.26
2017-12-01T06:59:06.941Z,96.45
2017-12-01T07:00:06.920Z,96.07
2017-12-01T07:01:06.890Z,96.45
2017-12-01T07:02:06.867Z,96.55
2017-12-01T07:03:06.843Z,96.17
2017-12-01T07:04:06.822Z,96.07
2017-12-01T07:05:06.797Z,96.17
2017-12-01T07:06:06.779Z,96.45
2017-12-01T07:07:06.747Z,96.45
2017-12-01T07:08:06.723Z,96.92
2017-12-01T07:09:06.700Z,97.02
2017-12-01T07:10:06.676Z,97.02
2017-12-01T07:11:06.658Z,96.64
2017-12-01T07:12:06.631Z,96.92
2017-12-01T07:13:06.605Z,96.83
2017-12-01T07:14:06.587Z,97.02
2017-12-01T07:15:06.555Z,97.30
2017-12-01T07:16:06.532Z,97.11
2017-12-01T07:17:06.509Z,97.30
2017-12-01T07:18:06.487Z,97.30
2017-12-01T07:19:06.463Z,97.11
2017-12-01T07:20:06.446Z,97.68
2017-12-01T07:21:06.421Z,97.21
2017-12-01T07:22:06.391Z,97.30
2017-12-01T07:23:06.369Z,97.11
2017-12-01T07:24:06.343Z,97.68
2017-12-01T07:25:06.320Z,97.78
2017-12-01T07:26:06.298Z,97.49
2017-12-01T07:27:06.274Z,97.02
2017-12-01T07:28:06.248Z,97.11
2017-12-01T07:29:06.228Z,96.83
2017-12-01T07:30:06.202Z,97.21
2017-12-01T07:31:06.206Z,96.64
2017-12-01T07:32:06.156Z,96.64
2017-12-01T07:33:06.134Z,96.73
2017-12-01T07:34:06.116Z,96.26
2017-12-01T07:35:06.106Z,96.07
2017-12-01T07:36:06.063Z,96.55
2017-12-01T07:37:06.049Z,96.45
2017-12-01T07:38:06.010Z,96.07
2017-12-01T07:39:05.990Z,96.07
2017-12-01T07:40:05.967Z,95.74
2017-12-01T07:41:05.958Z,95.45
2017-12-01T07:42:05.918Z,95.69
2017-12-01T07:43:05.912Z,95.65
2017-12-01T07:44:05.871Z,95.74
2017-12-01T07:45:05.869Z,95.65
2017-12-01T07:46:05.840Z,95.74
2017-12-01T07:47:05.807Z,95.45
2017-12-01T07:48:05.775Z,95.45
2017-12-01T07:49:05.765Z,94.89
2017-12-01T07:50:05.728Z,95.26
2017-12-01T07:51:05.715Z,95.74
2017-12-01T07:52:05.680Z,95.69
2017-12-01T07:53:05.656Z,95.65
2017-12-01T07:54:05.634Z,95.65
2017-12-01T07:55:05.640Z,95.36
2017-12-01T07:56:05.586Z,95.74
2017-12-01T07:57:05.563Z,95.65
2017-12-01T07:58:05.539Z,95.65
2017-12-01T07:59:05.521Z,95.07
2017-12-01T08:00:05.493Z,95.84
2017-12-01T08:01:05.467Z,95.55
2017-12-01T08:02:05.447Z,95.07
2017-12-01T08:03:05.424Z,95.55
2017-12-01T08:04:05.397Z,95.65
2017-12-01T08:05:05.383Z,94.98
2017-12-01T08:06:05.351Z,94.89
2017-12-01T08:07:05.328Z,94.70
2017-12-01T08:08:05.314Z,94.89
2017-12-01T08:09:05.288Z,94.89
2017-12-01T08:10:05.257Z,94.70
2017-12-01T08:11:05.233Z,94.70
2017-12-01T08:12:05.211Z,94.13
2017-12-01T08:13:05.186Z,94.32
2017-12-01T08:14:05.167Z,94.13
2017-12-01T08:15:05.140Z,94.60
2017-12-01T08:16:05.119Z,94.13
2017-12-01T08:17:05.102Z,94.60
2017-12-01T08:18:05.071Z,95.07
2017-12-01T08:19:05.049Z,94.60
2017-12-01T08:20:05.024Z,95.07
2017-12-01T08:21:05.009Z,94.42
2017-12-01T08:22:04.980Z,94.32
2017-12-01T08:23:04.953Z,94.70
2017-12-01T08:24:04.940Z,94.04
2017-12-01T08:25:04.925Z,94.60
2017-12-01T08:26:04.887Z,94.04
2017-12-01T08:27:04.859Z,94.89
2017-12-01T08:28:04.854Z,95.55
2017-12-01T08:29:04.814Z,95.55
2017-12-01T08:30:04.793Z,94.89
2017-12-01T08:31:04.769Z,94.42
2017-12-01T08:32:04.744Z,95.84
2017-12-01T08:33:04.726Z,95.55
2017-12-01T08:34:04.699Z,94.79
2017-12-01T08:35:04.678Z,94.70
2017-12-01T08:36:04.660Z,94.98
2017-12-01T08:37:04.637Z,94.51
2017-12-01T08:38:04.603Z,94.60
2017-12-01T08:39:04.587Z,94.60
2017-12-01T08:40:04.558Z,94.32
2017-12-01T08:41:04.539Z,93.94
2017-12-01T08:42:04.510Z,93.75
2017-12-01T08:43:04.497Z,93.27
2017-12-01T08:44:04.461Z,93.08
2017-12-01T08:45:04.446Z,93.84
2017-12-01T08:46:04.421Z,93.65
2017-12-01T08:47:04.399Z,92.52
2017-12-01T08:48:04.369Z,92.14
2017-12-01T08:49:04.345Z,92.42
2017-12-01T08:50:04.335Z,92.33
2017-12-01T08:51:04.305Z,92.99
2017-12-01T08:52:04.279Z,92.76
2017-12-01T08:53:04.256Z,93.08
2017-12-01T08:54:04.240Z,92.85
2017-12-01T08:55:04.254Z,92.28
2017-12-01T08:56:04.200Z,91.24
2017-12-01T08:57:04.166Z,90.48
2017-12-01T08:58:04.144Z,90.34
2017-12-01T08:59:04.117Z,91.19
2017-12-01T09:00:04.229Z,91.28
2017-12-01T09:01:04.082Z,91.61
2017-12-01T09:02:04.063Z,91.19
2017-12-01T09:03:04.043Z,91.09
2017-12-01T09:04:04.004Z,91.38
2017-12-01T09:05:03.980Z,90.43
2017-12-01T09:06:04.063Z,91.19
2017-12-01T09:07:03.933Z,91.76
2017-12-01T09:08:03.954Z,91.47
2017-12-01T09:09:03.888Z,91.09
2017-12-01T09:10:03.899Z,90.72
2017-12-01T09:11:03.843Z,91.52
2017-12-01T09:12:03.975Z,91.42
2017-12-01T09:13:03.802Z,90.91
2017-12-01T09:14:03.775Z,90.72
2017-12-01T09:15:03.752Z,91.14
2017-12-01T09:16:03.726Z,90.48
2017-12-01T09:17:03.704Z,90.19
2017-12-01T09:18:03.684Z,89.81
2017-12-01T09:19:03.661Z,89.72
2017-12-01T09:20:03.645Z,89.34
2017-12-01T09:21:03.630Z,88.96
2017-12-01T09:22:03.595Z,89.25
2017-12-01T09:23:03.572Z,88.01
2017-12-01T09:24:03.553Z,87.82
2017-12-01T09:25:03.526Z,88.29
2017-12-01T09:26:03.511Z,88.01
2017-12-01T09:27:03.484Z,87.35
2017-12-01T09:28:03.456Z,87.82
2017-12-01T09:29:03.437Z,87.30
2017-12-01T09:30:03.414Z,88.10
2017-12-01T09:31:03.389Z,87.92
2017-12-01T09:32:03.367Z,87.63
2017-12-01T09:33:03.358Z,87.73
2017-12-01T09:34:03.328Z,87.25
2017-12-01T09:35:03.301Z,87.92
2017-12-01T09:36:03.275Z,86.97
2017-12-01T09:37:03.261Z,86.30
2017-12-01T09:38:03.235Z,86.21
2017-12-01T09:39:03.215Z,86.30
2017-12-01T09:40:03.184Z,86.59
2017-12-01T09:41:03.163Z,86.30
2017-12-01T09:42:03.143Z,86.35
2017-12-01T09:43:03.118Z,85.45
2017-12-01T09:44:03.096Z,83.97
2017-12-01T09:45:03.092Z,84.50
2017-12-01T09:46:03.048Z,83.97
2017-12-01T09:47:03.026Z,84.17
2017-12-01T09:48:03.008Z,83.12
2017-12-01T09:49:02.982Z,83.59
2017-12-01T09:50:02.997Z,83.31
2017-12-01T09:51:02.948Z,83.31
2017-12-01T09:52:02.923Z,83.50
2017-12-01T09:53:02.899Z,83.40
2017-12-01T09:54:02.879Z,82.46
2017-12-01T09:55:02.849Z,82.60
2017-12-01T09:56:02.834Z,82.65
2017-12-01T09:57:02.805Z,83.03
2017-12-01T09:58:02.794Z,83.31
2017-12-01T09:59:02.759Z,82.93
2017-12-01T10:00:02.737Z,82.55
2017-12-01T10:01:02.721Z,81.41
2017-12-01T10:02:02.696Z,82.08
2017-12-01T10:03:02.675Z,82.65
2017-12-01T10:04:02.662Z,82.65
2017-12-01T10:05:02.628Z,82.74
2017-12-01T10:06:02.608Z,82.74
2017-12-01T10:07:02.644Z,82.08
2017-12-01T10:08:02.586Z,81.60
2017-12-01T10:09:02.550Z,79.90
2017-12-01T10:10:02.562Z,79.80
2017-12-01T10:11:02.504Z,79.99
2017-12-01T10:12:02.478Z,79.80
2017-12-01T10:13:02.456Z,80.27
2017-12-01T10:14:02.449Z,79.23
2017-12-01T10:15:02.409Z,78.85
2017-12-01T10:16:02.389Z,79.52
2017-12-01T10:17:02.419Z,79.52
2017-12-01T10:18:02.347Z,79.14
2017-12-01T10:19:02.326Z,78.66
2017-12-01T10:20:02.305Z,78.19
2017-12-01T10:21:02.293Z,78.00
2017-12-01T10:22:02.264Z,78.00
2017-12-01T10:23:02.238Z,77.52
2017-12-01T10:24:02.217Z,78.85
2017-12-01T10:25:02.196Z,78.85
2017-12-01T10:26:02.175Z,77.90
2017-12-01T10:27:02.205Z,78.00
2017-12-01T10:28:02.134Z,78.00
2017-12-01T10:29:02.114Z,78.56
2017-12-01T10:30:02.092Z,78.85
2017-12-01T10:31:02.081Z,79.52
2017-12-01T10:32:02.048Z,78.56
2017-12-01T10:33:02.109Z,78.38
2017-12-01T10:34:02.014Z,77.33
2017-12-01T10:35:01.986Z,77.62
2017-12-01T10:36:01.962Z,77.43
2017-12-01T10:37:02.071Z,77.14
2017-12-01T10:38:01.917Z,78.19
2017-12-01T10:39:01.906Z,78.09
2017-12-01T10:40:01.891Z,77.81
2017-12-01T10:41:01.863Z,77.81
2017-12-01T10:42:01.832Z,78.09
2017-12-01T10:43:01.966Z,77.90
2017-12-01T10:44:01.789Z,77.62
2017-12-01T10:45:01.772Z,77.62
2017-12-01T10:46:01.749Z,77.62
2017-12-01T10:47:01.769Z,77.66
2017-12-01T10:48:01.711Z,76.56
2017-12-01T10:49:01.683Z,74.56
2017-12-01T10:50:01.672Z,72.41
2017-12-01T10:51:01.641Z,72.22
2017-12-01T10:52:01.618Z,71.27
2017-12-01T10:53:01.599Z,70.89
2017-12-01T10:54:01.579Z,70.26
2017-12-01T10:55:01.560Z,68.84
2017-12-01T10:56:01.534Z,68.96
2017-12-01T10:57:01.528Z,66.59
2017-12-01T10:58:01.500Z,65.45
2017-12-01T10:59:01.485Z,65.25
2017-12-01T11:00:01.455Z,64.43
2017-12-01T11:01:01.435Z,63.67
2017-12-01T11:02:01.412Z,63.35
2017-12-01T11:03:01.400Z,65.92
2017-12-01T11:04:01.378Z,66.27
2017-12-01T11:05:01.369Z,68.17
2017-12-01T11:06:01.332Z,67.69
2017-12-01T11:07:01.317Z,68.07
2017-12-01T11:08:01.295Z,69.37
2017-12-01T11:09:01.273Z,70.32
2017-12-01T11:10:01.251Z,71.08
2017-12-01T11:11:01.231Z,68.52
2017-12-01T11:12:01.238Z,67.19
2017-12-01T11:13:01.199Z,67.19
2017-12-01T11:14:01.186Z,66.27
2017-12-01T11:15:01.244Z,64.08
2017-12-01T11:16:01.135Z,64.05
2017-12-01T11:17:01.118Z,66.24
2017-12-01T11:18:01.096Z,66.24
2017-12-01T11:19:01.075Z,63.86
2017-12-01T11:20:01.057Z,61.90
2017-12-01T11:21:01.031Z,61.39
2017-12-01T11:22:01.014Z,62.65
2017-12-01T11:23:00.996Z,62.46
2017-12-01T11:24:00.978Z,62.81
2017-12-01T11:25:00.956Z,62.05
2017-12-01T11:26:00.937Z,61.35
2017-12-01T11:27:00.919Z,59.83
2017-12-01T11:28:00.894Z,58.69
2017-12-01T11:29:00.881Z,56.70
2017-12-01T11:30:00.865Z,56.51
2017-12-01T11:31:00.833Z,55.55
2017-12-01T11:32:00.830Z,55.74
2017-12-01T11:33:00.801Z,57.52
2017-12-01T11:34:00.773Z,58.18
2017-12-01T11:35:00.756Z,58.73
2017-12-01T11:36:00.735Z,59.93
2017-12-01T11:37:00.714Z,61.45
2017-12-01T11:38:00.712Z,62.78
2017-12-01T11:39:00.686Z,63.07
2017-12-01T11:40:00.657Z,63.35
2017-12-01T11:41:00.668Z,63.45
2017-12-01T11:42:00.616Z,64.21
2017-12-01T11:43:00.603Z,64.30
2017-12-01T11:44:00.573Z,63.54
2017-12-01T11:45:00.554Z,65.12
2017-12-01T11:46:00.540Z,65.31
2017-12-01T11:47:00.510Z,64.84
2017-12-01T11:48:00.491Z,65.16
2017-12-01T11:49:00.471Z,64.56
2017-12-01T11:50:00.457Z,64.78
2017-12-01T11:51:00.429Z,64.59
2017-12-01T11:52:00.410Z,63.64
2017-12-01T11:53:00.408Z,63.64
2017-12-01T11:54:00.370Z,64.37
2017-12-01T11:55:00.367Z,63.98
2017-12-01T11:56:00.328Z,64.75
2017-12-01T11:57:00.309Z,64.65
2017-12-01T11:58:00.288Z,65.82
2017-12-01T11:59:00.269Z,65.35
2017-12-01T12:00:00.250Z,64.59
2017-12-01T12:01:00.230Z,64.40
2017-12-01T12:02:00.209Z,64.21
2017-12-01T12:03:00.231Z,64.40
2017-12-01T12:04:00.225Z,63.83
2017-12-01T12:05:00.146Z,63.45
2017-12-01T12:06:00.128Z,63.35
2017-12-01T12:07:00.108Z,63.45
2017-12-01T12:08:00.087Z,63.35
2017-12-01T12:09:00.069Z,62.62
2017-12-01T12:10:00.056Z,61.13
2017-12-01T12:11:00.031Z,59.64
2017-12-01T12:12:00.022Z,57.84
2017-12-01T12:12:59.986Z,58.66
2017-12-01T12:14:00.028Z,59.80
2017-12-01T12:14:59.947Z,60.09
2017-12-01T12:15:59.927Z,60.38
2017-12-01T12:16:59.914Z,61.20
2017-12-01T12:17:59.900Z,61.58
2017-12-01T12:18:59.893Z,62.81
2017-12-01T12:19:59.857Z,64.30
2017-12-01T12:20:59.827Z,63.45
2017-12-01T12:21:59.806Z,63.64
2017-12-01T12:22:59.791Z,63.35
2017-12-01T12:23:59.778Z,64.30
2017-12-01T12:24:59.750Z,65.16
2017-12-01T12:25:59.728Z,64.69
2017-12-01T12:26:59.707Z,65.54
2017-12-01T12:27:59.698Z,66.39
2017-12-01T12:28:59.667Z,65.98
2017-12-01T12:29:59.649Z,66.30
2017-12-01T12:30:59.629Z,66.17
2017-12-01T12:31:59.607Z,66.17
2017-12-01T12:32:59.587Z,66.46
2017-12-01T12:33:59.617Z,66.64
2017-12-01T12:34:59.604Z,67.59
2017-12-01T12:35:59.535Z,69.40
2017-12-01T12:36:59.504Z,70.73
2017-12-01T12:37:59.504Z,71.96
2017-12-01T12:38:59.463Z,73.57
2017-12-01T12:39:59.516Z,73.76
2017-12-01T12:40:59.423Z,73.86
2017-12-01T12:41:59.406Z,75.00
2017-12-01T12:42:59.405Z,75.38
2017-12-01T12:43:59.459Z,75.09
2017-12-01T12:44:59.352Z,74.81
2017-12-01T12:45:59.331Z,75.38
2017-12-01T12:46:59.300Z,75.09
2017-12-01T12:47:59.332Z,75.57
2017-12-01T12:48:59.261Z,75.67
2017-12-01T12:49:59.347Z,76.61
2017-12-01T12:50:59.224Z,76.52
2017-12-01T12:51:59.204Z,76.52